Time;durP1;ratioP1;P1;durP2;ratioP2;P2;SDS_P1;SDS_P2;PMS_P1;PMS_P2;Temp;Humidity;BMP_temperature;BMP_pressure;BME280_temperature;BME280_humidity;BME280_pressure;Samples;Min_cycle;Max_cycle;Signal;HPM_P1;HPM_P2
2022/11/30 00:00:52;;;;;;;2.53;2.33;;;6.30;99.90;;;;;;5071599;28;20048;-84
2022/11/30 00:03:17;;;;;;;5.85;2.38;;;6.30;99.90;;;;;;5070614;28;20044;-85
2022/11/30 00:05:43;;;;;;;3.58;3.08;;;6.30;99.90;;;;;;5053238;28;20112;-84
2022/11/30 00:08:09;;;;;;;0.98;0.93;;;6.30;99.90;;;;;;5072061;28;20083;-85
2022/11/30 00:10:37;;;;;;;2.92;2.58;;;6.30;99.90;;;;;;5071971;28;20031;-84
2022/11/30 00:13:03;;;;;;;5.55;2.70;;;6.30;99.90;;;;;;5053867;28;20052;-85
2022/11/30 00:15:28;;;;;;;6.63;2.50;;;6.30;99.90;;;;;;5054421;28;20049;-84
2022/11/30 00:17:58;;;;;;;3.83;3.45;;;6.30;99.90;;;;;;5070756;28;20086;-84
2022/11/30 00:20:24;;;;;;;2.80;1.38;;;6.20;99.90;;;;;;5072143;28;20044;-85
2022/11/30 00:22:50;;;;;;;11.07;4.60;;;6.20;99.90;;;;;;5072976;28;20079;-84
2022/11/30 00:25:15;;;;;;;4.90;3.03;;;6.20;99.90;;;;;;5053848;28;20317;-84
2022/11/30 00:27:41;;;;;;;5.75;4.68;;;6.20;99.90;;;;;;5071891;28;20044;-85
2022/11/30 00:30:07;;;;;;;11.75;2.92;;;7.00;99.90;;;;;;5072094;28;20140;-84
2022/11/30 00:32:33;;;;;;;2.60;2.22;;;6.20;99.90;;;;;;5036612;28;20049;-84
2022/11/30 00:34:59;;;;;;;2.65;2.45;;;6.20;99.90;;;;;;5053571;28;20052;-84
2022/11/30 00:37:25;;;;;;;4.18;2.90;;;6.90;99.90;;;;;;5071493;28;20041;-84
2022/11/30 00:39:53;;;;;;;7.53;4.22;;;7.00;99.90;;;;;;5069434;28;20537;-84
2022/11/30 00:42:18;;;;;;;2.42;2.22;;;6.20;99.90;;;;;;5071164;28;20075;-85
2022/11/30 00:44:44;;;;;;;7.53;2.55;;;6.20;99.90;;;;;;5071190;28;20483;-85
2022/11/30 00:47:10;;;;;;;6.63;3.70;;;6.20;99.90;;;;;;5053601;28;20368;-84
2022/11/30 00:49:36;;;;;;;12.25;2.35;;;6.10;99.90;;;;;;5069199;28;20040;-84
2022/11/30 00:52:02;;;;;;;2.33;2.13;;;6.70;99.90;;;;;;5052835;28;20048;-84
2022/11/30 00:54:28;;;;;;;5.60;2.30;;;6.10;99.90;;;;;;5069574;28;20380;-84
2022/11/30 00:56:53;;;;;;;4.82;2.45;;;6.10;99.90;;;;;;5052614;28;20059;-84
2022/11/30 00:59:19;;;;;;;3.67;2.13;;;6.40;99.90;;;;;;5072184;28;20044;-83
2022/11/30 01:01:45;;;;;;;5.30;1.88;;;6.00;99.90;;;;;;5070039;28;20060;-84
2022/11/30 01:04:10;;;;;;;18.30;5.20;;;6.50;99.90;;;;;;5069576;28;20083;-85
2022/11/30 01:06:36;;;;;;;6.05;1.92;;;6.00;99.90;;;;;;5070502;28;20057;-85
2022/11/30 01:09:03;;;;;;;2.60;2.30;;;6.00;99.90;;;;;;5069212;28;20090;-84
2022/11/30 01:11:29;;;;;;;3.50;2.15;;;6.10;99.90;;;;;;5052094;28;20052;-84
2022/11/30 01:13:57;;;;;;;5.60;3.25;;;6.10;99.90;;;;;;5070744;28;20075;-85
2022/11/30 01:16:28;;;;;;;6.18;2.00;;;6.20;99.90;;;;;;5052990;28;20040;-85
2022/11/30 01:18:54;;;;;;;4.95;3.63;;;6.10;99.90;;;;;;5052400;28;20138;-85
2022/11/30 01:21:24;;;;;;;1.20;1.00;;;5.20;99.90;;;;;;5070304;28;20106;-85
2022/11/30 01:23:53;;;;;;;7.25;3.92;;;6.10;99.90;;;;;;5070204;28;20151;-84
2022/11/30 01:26:20;;;;;;;2.50;1.90;;;6.10;99.90;;;;;;5070492;28;20114;-84
2022/11/30 01:28:51;;;;;;;3.55;3.20;;;6.10;99.90;;;;;;5070471;28;20060;-84
2022/11/30 01:31:17;;;;;;;7.72;4.32;;;6.10;99.90;;;;;;5068758;28;20040;-84
2022/11/30 01:33:46;;;;;;;3.65;3.22;;;6.10;99.90;;;;;;5068621;28;20062;-85
2022/11/30 01:36:15;;;;;;;5.65;2.13;;;6.10;99.90;;;;;;5051929;28;20041;-85
2022/11/30 01:38:47;;;;;;;3.67;3.38;;;6.10;99.90;;;;;;5068547;28;20128;-84
2022/11/30 01:41:20;;;;;;;0.77;0.77;;;6.20;99.90;;;;;;5063736;28;20113;-85
2022/11/30 01:43:46;;;;;;;4.90;4.30;;;6.20;99.90;;;;;;5068841;28;20057;-84
2022/11/30 01:46:24;;;;;;;3.55;2.28;;;6.20;99.90;;;;;;5067897;28;20116;-85
2022/11/30 01:48:58;;;;;;;2.05;1.85;;;6.20;99.90;;;;;;5069990;28;20083;-85
2022/11/30 01:51:27;;;;;;;2.28;2.10;;;6.10;99.90;;;;;;5087092;28;20153;-84
2022/11/30 01:53:53;;;;;;;5.43;2.60;;;6.10;99.90;;;;;;5071141;28;20125;-84
2022/11/30 01:56:19;;;;;;;1.73;1.63;;;6.20;99.90;;;;;;5071398;28;20115;-85
2022/11/30 01:58:44;;;;;;;5.88;3.08;;;6.20;99.90;;;;;;5086545;28;20074;-84
2022/11/30 02:01:10;;;;;;;2.45;2.03;;;6.20;99.90;;;;;;5084387;28;20056;-84
2022/11/30 02:03:47;;;;;;;2.05;1.88;;;6.20;99.90;;;;;;5073781;28;20063;-84
2022/11/30 02:06:14;;;;;;;3.53;3.22;;;6.40;99.90;;;;;;5091352;28;20055;-85
2022/11/30 02:08:39;;;;;;;12.48;4.13;;;6.20;99.90;;;;;;5089512;28;20519;-84
2022/11/30 02:11:10;;;;;;;6.53;3.47;;;6.20;99.90;;;;;;5089992;28;20127;-84
2022/11/30 02:14:24;;;;;;;2.30;1.65;;;6.20;99.90;;;;;;5089842;28;20058;-84
2022/11/30 02:17:10;;;;;;;5.68;1.95;;;6.20;99.90;;;;;;5071514;28;20485;-85
2022/11/30 02:20:09;;;;;;;4.13;3.58;;;7.20;99.90;;;;;;5088915;28;20398;-85
2022/11/30 02:22:44;;;;;;;2.17;1.98;;;6.20;99.90;;;;;;5070755;28;20055;-85
2022/11/30 02:25:44;;;;;;;5.45;3.40;;;6.20;99.90;;;;;;5071534;28;20143;-85
2022/11/30 02:28:48;;;;;;;2.13;1.70;;;6.20;99.90;;;;;;5071608;28;20059;-85
2022/11/30 02:31:19;;;;;;;8.38;1.85;;;6.20;99.90;;;;;;5071267;28;20059;-84
2022/11/30 02:33:48;;;;;;;3.92;3.47;;;6.20;99.90;;;;;;5088585;28;20040;-85
2022/11/30 02:36:14;;;;;;;1.40;1.30;;;6.20;99.90;;;;;;5071032;28;20048;-85
2022/11/30 02:38:40;;;;;;;1.45;1.35;;;6.20;99.90;;;;;;5071403;28;20040;-84
2022/11/30 02:41:06;;;;;;;4.72;1.95;;;6.20;99.90;;;;;;5071304;28;20048;-85
2022/11/30 02:43:33;;;;;;;4.50;2.70;;;6.20;99.90;;;;;;5088948;28;20063;-84
2022/11/30 02:46:09;;;;;;;7.40;2.58;;;6.60;99.90;;;;;;5070563;28;20063;-84
2022/11/30 02:48:41;;;;;;;14.10;5.13;;;6.20;99.90;;;;;;5071639;28;20512;-84
2022/11/30 02:51:08;;;;;;;4.82;3.22;;;6.20;99.90;;;;;;5071519;28;20177;-85
2022/11/30 02:53:34;;;;;;;2.28;1.73;;;7.20;99.90;;;;;;5088312;28;20531;-84
2022/11/30 02:56:00;;;;;;;3.25;2.95;;;6.20;99.90;;;;;;5071742;28;20547;-84
2022/11/30 03:01:01;;;;;;;4.55;3.05;;;6.20;99.90;;;;;;5081324;22;20061;-76
2022/11/30 03:03:26;;;;;;;3.55;2.38;;;6.20;99.90;;;;;;5032691;28;20040;-76
2022/11/30 03:05:52;;;;;;;3.35;2.60;;;6.20;99.90;;;;;;5041343;28;20059;-77
2022/11/30 03:08:18;;;;;;;2.00;1.63;;;6.20;99.90;;;;;;5043394;28;20041;-76
2022/11/30 03:10:43;;;;;;;5.25;4.18;;;6.20;99.90;;;;;;5042110;28;20148;-77
2022/11/30 03:13:09;;;;;;;6.70;2.20;;;6.20;99.90;;;;;;5026084;28;20060;-76
2022/11/30 03:15:34;;;;;;;4.40;3.38;;;6.20;99.90;;;;;;5043348;28;20406;-77
2022/11/30 03:18:02;;;;;;;2.30;2.13;;;6.20;99.90;;;;;;5043421;28;20080;-77
2022/11/30 03:20:28;;;;;;;4.30;3.17;;;6.20;99.90;;;;;;5043850;28;20037;-77
2022/11/30 03:22:53;;;;;;;3.35;2.58;;;6.20;99.90;;;;;;5044145;28;20045;-77
2022/11/30 03:25:19;;;;;;;2.92;2.72;;;6.20;99.90;;;;;;5043471;28;20103;-77
2022/11/30 03:27:45;;;;;;;4.75;3.65;;;6.20;99.90;;;;;;5044094;28;20498;-76
2022/11/30 03:30:11;;;;;;;1.05;0.95;;;6.20;99.90;;;;;;5044008;28;20049;-77
2022/11/30 03:32:37;;;;;;;3.20;2.90;;;6.20;99.90;;;;;;5043170;28;20570;-77
2022/11/30 03:35:02;;;;;;;3.10;2.40;;;6.20;99.90;;;;;;5046362;28;20044;-76
2022/11/30 03:37:28;;;;;;;2.25;2.08;;;6.10;99.90;;;;;;5046005;28;20381;-77
2022/11/30 03:39:53;;;;;;;1.50;1.25;;;6.30;99.90;;;;;;5046296;28;20041;-77
2022/11/30 03:42:19;;;;;;;8.10;5.18;;;6.20;99.90;;;;;;5027681;28;20057;-77
2022/11/30 03:44:45;;;;;;;1.33;1.23;;;6.20;99.90;;;;;;5045966;28;20049;-76
2022/11/30 03:47:10;;;;;;;7.30;4.15;;;6.20;99.90;;;;;;5045863;28;20080;-77
2022/11/30 03:49:36;;;;;;;8.15;4.82;;;6.20;99.90;;;;;;5046264;28;20061;-77
2022/11/30 03:52:02;;;;;;;4.22;1.77;;;6.20;99.90;;;;;;5045321;28;20060;-78
2022/11/30 03:54:27;;;;;;;1.23;1.13;;;6.10;99.90;;;;;;5045635;28;20450;-77
2022/11/30 03:56:53;;;;;;;2.10;1.83;;;6.10;99.90;;;;;;5046429;28;20188;-76
2022/11/30 03:59:19;;;;;;;6.32;3.53;;;6.10;99.90;;;;;;5044630;28;20044;-76
2022/11/30 04:01:44;;;;;;;2.75;1.80;;;6.10;99.90;;;;;;5045348;28;20048;-76
2022/11/30 04:04:11;;;;;;;2.28;2.05;;;6.20;99.90;;;;;;5045733;28;20045;-77
2022/11/30 04:06:37;;;;;;;3.45;2.67;;;6.10;99.90;;;;;;5045507;28;20509;-77
2022/11/30 04:09:03;;;;;;;13.57;3.25;;;6.10;99.90;;;;;;5033663;28;20037;-77
2022/11/30 04:11:28;;;;;;;4.32;2.70;;;6.10;99.90;;;;;;5030530;28;20075;-76
2022/11/30 04:13:54;;;;;;;4.85;3.65;;;6.10;99.90;;;;;;5045167;28;20692;-76
2022/11/30 04:16:20;;;;;;;4.68;4.25;;;6.10;99.90;;;;;;5045368;28;20067;-77
2022/11/30 04:18:45;;;;;;;2.75;2.45;;;6.10;99.90;;;;;;5045741;28;20114;-77
2022/11/30 04:21:11;;;;;;;5.90;3.55;;;6.10;99.90;;;;;;5045073;28;20049;-77
2022/11/30 04:23:38;;;;;;;3.88;2.47;;;6.10;99.90;;;;;;5045111;28;20059;-76
2022/11/30 04:26:05;;;;;;;2.47;2.13;;;6.10;99.90;;;;;;5045467;28;20045;-77
2022/11/30 04:28:31;;;;;;;2.63;2.42;;;6.10;99.90;;;;;;5045497;28;20539;-77
2022/11/30 04:30:59;;;;;;;2.63;1.85;;;6.10;99.90;;;;;;5045606;28;20127;-77
2022/11/30 04:33:25;;;;;;;6.97;3.33;;;6.10;99.90;;;;;;5026947;28;20139;-77
2022/11/30 04:35:54;;;;;;;4.38;2.80;;;6.10;99.90;;;;;;5045423;28;20529;-76
2022/11/30 04:38:21;;;;;;;2.75;2.50;;;6.10;99.90;;;;;;5044809;28;20410;-76
2022/11/30 04:40:46;;;;;;;8.43;4.88;;;6.10;99.90;;;;;;5045055;28;20043;-77
2022/11/30 04:43:12;;;;;;;5.50;4.53;;;6.10;99.90;;;;;;5044911;28;20131;-77
2022/11/30 04:45:38;;;;;;;4.07;3.67;;;6.10;99.90;;;;;;5044851;28;20037;-76
2022/11/30 04:48:08;;;;;;;3.67;2.05;;;6.00;99.90;;;;;;5045320;28;20048;-76
2022/11/30 04:50:35;;;;;;;3.70;2.25;;;6.00;99.90;;;;;;5045280;28;20075;-77
2022/11/30 04:53:01;;;;;;;1.60;1.45;;;6.00;99.90;;;;;;5044700;28;20071;-77
2022/11/30 04:55:26;;;;;;;4.70;4.22;;;6.00;99.90;;;;;;5044654;28;20057;-77
2022/11/30 04:57:52;;;;;;;3.78;2.80;;;6.00;99.90;;;;;;5044607;28;20479;-77
2022/11/30 05:00:18;;;;;;;6.30;3.88;;;6.00;99.90;;;;;;5044513;28;20442;-77
2022/11/30 05:02:45;;;;;;;5.72;4.35;;;5.90;99.90;;;;;;5044200;28;20486;-77
2022/11/30 05:05:11;;;;;;;7.45;3.63;;;5.90;99.90;;;;;;5045223;28;20044;-76
2022/11/30 05:07:37;;;;;;;3.85;2.53;;;5.90;99.90;;;;;;5044660;28;20045;-76
2022/11/30 05:10:04;;;;;;;5.90;3.00;;;6.00;99.90;;;;;;5026629;28;20044;-76
2022/11/30 05:12:30;;;;;;;18.02;6.75;;;5.90;99.90;;;;;;5044291;28;20049;-77
2022/11/30 05:14:56;;;;;;;9.70;5.25;;;5.90;99.90;;;;;;5041204;28;20581;-77
2022/11/30 05:17:22;;;;;;;7.38;4.22;;;5.90;99.90;;;;;;5008709;28;20073;-77
2022/11/30 05:19:48;;;;;;;2.65;2.30;;;5.90;99.90;;;;;;5024270;28;20053;-77
2022/11/30 05:22:13;;;;;;;3.83;2.88;;;5.90;99.90;;;;;;5035535;28;20056;-77
2022/11/30 05:24:39;;;;;;;8.43;3.85;;;5.90;99.90;;;;;;5043896;28;20045;-77
2022/11/30 05:27:05;;;;;;;11.88;2.67;;;5.90;99.90;;;;;;5043728;28;20380;-76
2022/11/30 05:29:33;;;;;;;5.55;2.17;;;6.00;99.90;;;;;;5043715;28;20051;-80
2022/11/30 05:32:00;;;;;;;10.18;4.43;;;5.90;99.90;;;;;;5043677;28;20053;-77
2022/11/30 05:34:26;;;;;;;3.92;2.97;;;5.90;99.90;;;;;;5043400;28;20044;-76
2022/11/30 05:36:51;;;;;;;8.50;2.97;;;5.90;99.90;;;;;;5043328;28;20317;-77
2022/11/30 05:39:17;;;;;;;3.17;2.42;;;5.90;99.90;;;;;;5043351;28;20036;-77
2022/11/30 05:41:42;;;;;;;4.03;3.67;;;5.90;99.90;;;;;;5043045;28;20072;-76
2022/11/30 05:44:08;;;;;;;25.33;5.32;;;5.90;99.90;;;;;;5042758;28;20056;-76
2022/11/30 05:46:34;;;;;;;3.70;3.35;;;5.90;99.90;;;;;;5025248;28;20132;-77
2022/11/30 05:49:00;;;;;;;0.90;0.90;;;5.90;99.90;;;;;;5042724;28;20136;-77
2022/11/30 05:51:25;;;;;;;2.72;2.45;;;5.90;99.90;;;;;;5043016;28;20094;-76
2022/11/30 05:53:51;;;;;;;7.47;3.83;;;5.90;99.90;;;;;;5042600;28;20044;-77
2022/11/30 05:56:19;;;;;;;3.38;2.97;;;6.00;99.90;;;;;;5039788;28;20505;-77
2022/11/30 05:58:45;;;;;;;2.25;2.05;;;5.90;99.90;;;;;;5041177;28;20059;-77
2022/11/30 06:01:27;;;;;;;4.22;2.65;;;5.90;99.90;;;;;;5037756;28;20049;-76
2022/11/30 06:03:55;;;;;;;3.63;3.33;;;5.90;99.90;;;;;;4986881;28;20049;-77
2022/11/30 06:06:21;;;;;;;4.75;2.42;;;5.80;99.90;;;;;;5019324;28;20513;-76
2022/11/30 06:08:48;;;;;;;4.85;2.85;;;5.90;99.90;;;;;;5040095;28;20573;-77
2022/11/30 06:11:14;;;;;;;7.47;4.70;;;5.80;99.90;;;;;;5040234;28;20036;-76
2022/11/30 06:13:39;;;;;;;1.90;1.65;;;5.80;99.90;;;;;;5040679;28;20041;-76
2022/11/30 06:16:06;;;;;;;1.90;1.75;;;5.80;99.90;;;;;;5039972;28;20489;-76
2022/11/30 06:18:33;;;;;;;2.35;2.15;;;5.80;99.90;;;;;;5040130;28;20053;-76
2022/11/30 06:21:00;;;;;;;5.93;4.15;;;5.80;99.90;;;;;;5040895;28;20080;-76
2022/11/30 06:23:26;;;;;;;3.05;2.40;;;5.70;99.90;;;;;;5040160;28;20060;-76
2022/11/30 06:25:51;;;;;;;2.90;2.60;;;5.80;99.90;;;;;;5040656;28;20045;-76
2022/11/30 06:28:17;;;;;;;6.78;3.15;;;5.80;99.90;;;;;;5040420;28;20041;-76
2022/11/30 06:30:43;;;;;;;2.17;1.67;;;5.80;99.90;;;;;;5042546;28;20056;-76
2022/11/30 06:33:08;;;;;;;8.70;3.67;;;5.80;99.90;;;;;;5042999;28;20041;-77
2022/11/30 06:35:34;;;;;;;2.00;1.83;;;5.80;99.90;;;;;;5042497;28;20478;-76
2022/11/30 06:38:00;;;;;;;1.58;1.48;;;5.80;99.90;;;;;;5040856;28;20040;-76
2022/11/30 06:40:26;;;;;;;3.92;3.10;;;5.80;99.90;;;;;;5040926;28;20049;-76
2022/11/30 06:42:53;;;;;;;4.45;2.33;;;5.80;99.90;;;;;;5040752;28;20041;-76
2022/11/30 06:45:18;;;;;;;7.85;3.22;;;5.80;99.90;;;;;;5040626;28;20063;-76
2022/11/30 06:47:44;;;;;;;6.57;2.53;;;5.80;99.90;;;;;;5040236;28;20045;-76
2022/11/30 06:50:11;;;;;;;3.40;2.75;;;5.80;99.90;;;;;;5039985;28;20041;-76
2022/11/30 06:52:37;;;;;;;2.90;2.17;;;5.70;99.90;;;;;;5040154;28;20117;-76
2022/11/30 06:55:03;;;;;;;1.55;1.45;;;5.80;99.90;;;;;;5040181;28;20400;-76
2022/11/30 06:57:29;;;;;;;1.10;1.05;;;5.80;99.90;;;;;;5039995;28;20045;-76
2022/11/30 06:59:56;;;;;;;1.35;1.30;;;5.70;99.90;;;;;;5039844;28;20071;-76
2022/11/30 07:02:22;;;;;;;2.67;2.28;;;5.70;99.90;;;;;;5040168;28;20587;-76
2022/11/30 07:04:48;;;;;;;5.40;3.78;;;5.70;99.90;;;;;;5040383;28;20044;-76
2022/11/30 07:07:14;;;;;;;4.95;2.90;;;6.50;99.90;;;;;;5041222;28;20490;-76
2022/11/30 07:09:40;;;;;;;0.63;0.52;;;5.70;99.90;;;;;;5044867;28;20079;-76
2022/11/30 07:12:06;;;;;;;1.38;1.27;;;5.70;99.90;;;;;;5044080;28;20626;-76
2022/11/30 07:14:32;;;;;;;7.57;1.00;;;5.70;99.90;;;;;;5026405;28;20098;-76
2022/11/30 07:16:58;;;;;;;2.25;1.55;;;5.70;99.90;;;;;;5026374;28;20053;-76
2022/11/30 07:19:24;;;;;;;2.65;2.30;;;5.70;99.90;;;;;;5026324;28;20447;-76
2022/11/30 07:21:49;;;;;;;0.55;0.55;;;5.70;99.90;;;;;;5044448;28;20244;-76
2022/11/30 07:27:01;;;;;;;6.28;2.72;;;5.70;99.90;;;;;;5044490;28;20505;-76
2022/11/30 07:29:27;;;;;;;2.28;1.08;;;5.70;99.90;;;;;;5041057;28;20401;-76
2022/11/30 07:31:53;;;;;;;2.15;1.88;;;5.70;99.90;;;;;;5033389;28;20045;-76
2022/11/30 07:34:20;;;;;;;2.92;2.38;;;5.70;99.90;;;;;;5032182;28;20084;-76
2022/11/30 07:36:45;;;;;;;1.23;1.10;;;5.70;99.90;;;;;;5031965;28;20069;-76
2022/11/30 07:39:12;;;;;;;2.53;2.33;;;5.70;99.90;;;;;;5043726;28;20720;-76
2022/11/30 07:41:39;;;;;;;1.58;1.42;;;5.70;99.90;;;;;;5043452;28;20494;-76
2022/11/30 07:44:06;;;;;;;9.60;2.72;;;5.70;99.90;;;;;;5043839;28;20146;-76
2022/11/30 07:46:34;;;;;;;1.67;1.58;;;5.70;99.90;;;;;;5043789;28;20490;-75
2022/11/30 07:49:00;;;;;;;2.58;2.03;;;5.70;99.90;;;;;;5025388;28;20045;-75
2022/11/30 07:51:27;;;;;;;1.67;1.55;;;5.70;99.90;;;;;;5042413;28;20048;-75
2022/11/30 07:53:55;;;;;;;0.60;0.47;;;5.70;99.90;;;;;;5043893;28;20049;-75
2022/11/30 07:56:22;;;;;;;2.45;1.42;;;5.70;99.90;;;;;;5043649;28;20099;-75
2022/11/30 07:58:50;;;;;;;0.47;0.47;;;5.70;99.90;;;;;;5026120;28;20056;-75
2022/11/30 08:01:18;;;;;;;4.60;0.85;;;5.70;99.90;;;;;;5043403;28;20068;-75
2022/11/30 08:03:44;;;;;;;5.28;2.08;;;5.70;99.90;;;;;;5026038;28;20072;-75
2022/11/30 08:06:14;;;;;;;3.22;2.33;;;5.70;99.90;;;;;;5043415;28;20141;-75
2022/11/30 08:08:43;;;;;;;2.50;2.25;;;5.70;99.90;;;;;;5042952;28;20458;-75
2022/11/30 08:11:12;;;;;;;1.20;1.00;;;5.70;99.90;;;;;;5043248;28;20107;-76
2022/11/30 08:13:38;;;;;;;2.67;1.88;;;5.70;99.90;;;;;;5043343;28;20048;-75
2022/11/30 08:16:06;;;;;;;1.55;1.23;;;5.70;99.90;;;;;;5043258;28;20044;-75
2022/11/30 08:18:33;;;;;;;3.42;2.92;;;5.70;99.90;;;;;;5024455;28;20048;-76
2022/11/30 08:21:00;;;;;;;0.65;0.65;;;5.70;99.90;;;;;;5043063;28;20045;-76
2022/11/30 08:23:30;;;;;;;2.15;1.40;;;5.70;99.90;;;;;;5042074;28;20059;-75
2022/11/30 08:25:56;;;;;;;4.72;1.60;;;5.70;99.90;;;;;;5041429;28;20053;-75
2022/11/30 08:28:22;;;;;;;3.40;1.70;;;5.70;99.90;;;;;;5040732;28;20045;-75
2022/11/30 08:30:47;;;;;;;3.95;3.55;;;5.70;99.90;;;;;;5041132;28;20049;-75
2022/11/30 08:33:13;;;;;;;1.02;0.98;;;5.70;99.40;;;;;;5040663;28;20037;-75
2022/11/30 08:35:48;;;;;;;2.42;2.22;;;5.70;99.90;;;;;;5040974;28;20521;-76
2022/11/30 08:38:13;;;;;;;3.63;2.28;;;5.70;99.90;;;;;;5040916;28;20084;-76
2022/11/30 08:40:39;;;;;;;2.83;1.35;;;5.80;91.90;;;;;;5040750;28;20045;-75
2022/11/30 08:43:05;;;;;;;5.38;2.85;;;5.80;67.50;;;;;;5039275;28;20071;-75
2022/11/30 08:45:32;;;;;;;2.65;2.45;;;5.80;42.50;;;;;;5041005;28;20053;-75
2022/11/30 08:47:58;;;;;;;0.82;0.73;;;5.80;99.90;;;;;;5022678;28;20175;-75
2022/11/30 08:50:24;;;;;;;4.47;1.88;;;5.80;98.50;;;;;;5040449;28;20067;-75
2022/11/30 08:52:53;;;;;;;0.65;0.65;;;5.80;64.30;;;;;;5040327;28;20045;-75
2022/11/30 08:55:18;;;;;;;2.05;1.35;;;5.80;99.90;;;;;;5040209;28;20485;-75
2022/11/30 08:57:44;;;;;;;1.38;1.27;;;5.80;86.50;;;;;;5040159;28;20045;-75
2022/11/30 09:00:10;;;;;;;4.70;1.38;;;5.80;50.30;;;;;;5039913;28;20686;-75
2022/11/30 09:02:36;;;;;;;0.88;0.88;;;5.80;97.40;;;;;;5021556;28;20045;-75
2022/11/30 09:05:02;;;;;;;3.30;2.20;;;5.80;91.10;;;;;;5040174;28;20060;-75
2022/11/30 09:07:27;;;;;;;2.55;2.30;;;5.80;99.90;;;;;;5040477;28;20521;-76
2022/11/30 09:09:53;;;;;;;0.82;0.73;;;5.80;80.60;;;;;;5039931;28;20052;-75
2022/11/30 09:12:19;;;;;;;1.48;1.38;;;5.80;89.80;;;;;;5040039;28;20494;-75
2022/11/30 09:14:46;;;;;;;9.57;1.98;;;5.80;99.90;;;;;;5039973;28;20566;-76
2022/11/30 09:17:12;;;;;;;2.38;1.83;;;5.80;99.90;;;;;;5039876;28;20053;-76
2022/11/30 09:19:38;;;;;;;0.95;0.95;;;5.90;99.90;;;;;;5039458;28;20048;-76
2022/11/30 09:22:04;;;;;;;1.20;1.10;;;5.90;99.90;;;;;;5040009;28;20578;-76
2022/11/30 09:24:33;;;;;;;3.95;3.30;;;5.90;99.90;;;;;;5040028;28;20040;-76
2022/11/30 09:26:58;;;;;;;3.40;1.75;;;5.90;74.20;;;;;;5040330;28;20048;-76
2022/11/30 09:29:24;;;;;;;2.50;1.98;;;6.00;63.90;;;;;;5022017;28;20608;-76
2022/11/30 09:31:49;;;;;;;2.10;1.90;;;6.00;99.90;;;;;;5039741;28;20048;-76
2022/11/30 09:34:18;;;;;;;3.30;1.63;;;6.00;99.90;;;;;;5039396;28;20076;-76
2022/11/30 09:36:43;;;;;;;2.08;1.40;;;6.10;99.90;;;;;;5039584;28;20091;-76
2022/11/30 09:39:11;;;;;;;3.28;2.80;;;6.10;99.90;;;;;;5039564;28;20155;-76
2022/11/30 09:42:08;;;;;;;3.90;2.70;;;6.20;99.90;;;;;;5039385;28;20049;-76
2022/11/30 09:44:42;;;;;;;2.53;1.27;;;6.20;43.40;;;;;;5039435;28;20063;-76
2022/11/30 09:47:36;;;;;;;7.88;4.18;;;6.20;95.80;;;;;;5039321;28;20048;-76
2022/11/30 09:50:11;;;;;;;5.45;2.30;;;6.20;26.20;;;;;;5039367;28;20041;-76
2022/11/30 09:52:41;;;;;;;5.25;2.53;;;6.30;66.00;;;;;;5039123;28;20049;-76
2022/11/30 09:55:10;;;;;;;3.60;2.75;;;6.30;87.50;;;;;;5040167;28;20037;-76
2022/11/30 09:57:46;;;;;;;5.55;3.15;;;6.40;39.80;;;;;;5042872;28;20056;-76
2022/11/30 10:00:16;;;;;;;3.47;2.50;;;6.40;21.80;;;;;;5025383;28;20049;-76
2022/11/30 10:02:42;;;;;;;4.82;2.88;;;6.40;9.00;;;;;;5043978;28;20095;-76
2022/11/30 10:05:14;;;;;;;3.00;2.47;;;6.40;1.00;;;;;;5043766;28;20137;-76
2022/11/30 10:07:48;;;;;;;4.75;3.72;;;6.40;1.00;;;;;;5042964;28;20040;-76
2022/11/30 10:10:39;;;;;;;1.77;1.65;;;6.50;1.00;;;;;;5041299;28;20048;-76
2022/11/30 10:13:29;;;;;;;2.55;2.33;;;6.50;1.00;;;;;;5041346;28;20076;-76
2022/11/30 10:16:11;;;;;;;6.65;2.72;;;6.50;1.00;;;;;;5041411;28;20155;-76
2022/11/30 10:19:20;;;;;;;0.90;0.90;;;6.50;1.00;;;;;;5041031;28;20492;-76
2022/11/30 10:22:10;;;;;;;3.22;2.65;;;6.40;1.00;;;;;;5020688;28;20057;-76
2022/11/30 10:24:54;;;;;;;2.50;1.33;;;6.40;1.00;;;;;;5040639;28;20434;-76
2022/11/30 10:27:47;;;;;;;1.85;1.73;;;6.40;1.00;;;;;;5040658;28;20060;-76
2022/11/30 10:30:16;;;;;;;3.10;1.45;;;6.40;1.00;;;;;;5035208;28;20056;-76
2022/11/30 10:32:46;;;;;;;3.95;2.63;;;6.40;1.00;;;;;;5040464;28;20045;-76
2022/11/30 10:35:29;;;;;;;2.05;1.67;;;6.40;1.00;;;;;;5040757;28;20045;-76
2022/11/30 10:37:56;;;;;;;5.22;2.22;;;6.40;1.00;;;;;;5040764;28;20080;-76
2022/11/30 10:40:31;;;;;;;4.53;3.60;;;6.40;1.00;;;;;;5040679;28;20518;-76
2022/11/30 10:43:22;;;;;;;1.90;1.80;;;6.80;1.00;;;;;;5022936;28;20092;-76
2022/11/30 10:45:49;;;;;;;2.75;2.53;;;6.50;1.00;;;;;;5040897;28;20049;-76
2022/11/30 10:48:29;;;;;;;3.25;2.95;;;6.60;1.00;;;;;;5041042;28;20045;-76
2022/11/30 10:50:55;;;;;;;6.10;2.42;;;6.60;99.90;;;;;;5004561;28;20465;-76
2022/11/30 10:53:21;;;;;;;3.75;2.58;;;6.60;99.90;;;;;;5022627;28;20044;-76
2022/11/30 10:56:11;;;;;;;2.10;1.80;;;6.60;99.90;;;;;;5022558;28;20053;-76
2022/11/30 10:58:53;;;;;;;4.43;3.45;;;6.60;99.90;;;;;;5023008;28;20059;-76
2022/11/30 11:01:34;;;;;;;2.45;2.25;;;6.60;99.90;;;;;;5038664;28;20053;-76
2022/11/30 11:04:12;;;;;;;1.33;1.23;;;6.50;99.90;;;;;;5040570;28;20041;-76
2022/11/30 11:06:48;;;;;;;4.75;2.28;;;6.50;99.90;;;;;;5038544;28;20057;-76
2022/11/30 11:09:34;;;;;;;;;;;6.50;99.90;;;;;;5021475;28;20092;-76
2022/11/30 11:12:26;;;;;;;2.13;1.50;;;6.40;1.00;;;;;;5038507;28;19925;-76
2022/11/30 11:15:15;;;;;;;0.40;0.40;;;6.50;99.90;;;;;;5038765;28;20079;-76
2022/11/30 11:17:41;;;;;;;3.45;3.05;;;6.50;99.90;;;;;;5037428;28;20064;-76
2022/11/30 11:20:30;;;;;;;3.38;2.65;;;6.50;99.90;;;;;;5038422;28;20041;-76
2022/11/30 11:22:56;;;;;;;3.88;1.85;;;6.50;99.90;;;;;;5039361;28;20222;-76
2022/11/30 11:25:29;;;;;;;2.22;2.03;;;6.60;99.90;;;;;;5022217;28;20049;-76
2022/11/30 11:28:03;;;;;;;2.95;2.50;;;6.60;1.00;;;;;;5040366;28;20053;-76
2022/11/30 11:30:31;;;;;;;2.20;1.38;;;6.60;99.90;;;;;;5040154;28;20053;-76
2022/11/30 11:33:11;;;;;;;2.00;1.70;;;6.50;99.90;;;;;;5039927;28;20486;-76
2022/11/30 11:35:40;;;;;;;2.35;1.15;;;6.50;99.90;;;;;;5040542;28;20049;-76
2022/11/30 11:38:20;;;;;;;2.08;1.85;;;6.50;99.90;;;;;;5040224;28;20152;-76
2022/11/30 11:41:11;;;;;;;1.00;0.77;;;6.50;99.90;;;;;;5039714;28;20049;-76
2022/11/30 11:44:00;;;;;;;6.22;2.97;;;6.40;99.90;;;;;;5021977;28;20437;-76
2022/11/30 11:46:26;;;;;;;1.98;1.60;;;6.40;99.90;;;;;;5039840;28;20387;-76
2022/11/30 11:49:00;;;;;;;9.98;2.75;;;6.50;1.00;;;;;;5039704;28;20123;-76
2022/11/30 11:51:34;;;;;;;2.40;2.20;;;6.50;99.90;;;;;;5022086;28;20057;-76
2022/11/30 11:54:45;;;;;;;2.92;2.38;;;6.40;99.90;;;;;;5040562;28;20056;-76
2022/11/30 11:57:16;;;;;;;6.13;3.30;;;6.40;99.90;;;;;;5043837;28;20506;-76
2022/11/30 12:00:02;;;;;;;1.90;1.63;;;6.40;99.90;;;;;;5043332;28;20041;-76
2022/11/30 12:02:44;;;;;;;10.32;1.48;;;6.40;99.90;;;;;;5043010;28;20061;-76
2022/11/30 12:05:25;;;;;;;3.05;2.83;;;6.40;99.90;;;;;;5044533;28;20148;-76
2022/11/30 12:08:13;;;;;;;3.38;2.95;;;6.40;99.90;;;;;;5043897;28;20053;-76
2022/11/30 12:10:57;;;;;;;2.50;2.05;;;6.40;99.90;;;;;;5042571;28;20126;-76
2022/11/30 12:13:42;;;;;;;3.30;2.28;;;6.40;1.00;;;;;;5043381;28;20056;-76
2022/11/30 12:16:09;;;;;;;0.95;0.95;;;6.40;1.00;;;;;;5043833;28;20045;-76
2022/11/30 12:18:44;;;;;;;1.50;1.27;;;6.40;1.00;;;;;;5044193;28;20057;-76
2022/11/30 12:21:47;;;;;;;4.35;3.95;;;6.40;1.00;;;;;;5043434;28;20059;-76
2022/11/30 12:24:33;;;;;;;6.57;2.22;;;6.40;1.00;;;;;;5043587;28;20048;-76
2022/11/30 12:27:17;;;;;;;4.00;3.05;;;6.50;1.00;;;;;;5043367;28;20048;-76
2022/11/30 12:30:02;;;;;;;2.15;1.95;;;6.40;1.00;;;;;;5043898;28;20057;-76
2022/11/30 12:33:02;;;;;;;8.13;3.05;;;6.40;99.90;;;;;;5043019;28;20049;-77
2022/11/30 12:35:46;;;;;;;2.30;2.10;;;6.40;1.00;;;;;;5017789;28;20126;-76
2022/11/30 12:38:25;;;;;;;4.22;2.97;;;6.40;99.90;;;;;;5043384;28;20052;-76
2022/11/30 12:41:21;;;;;;;7.32;3.78;;;6.40;99.90;;;;;;5042660;28;20044;-76
2022/11/30 12:44:04;;;;;;;2.22;2.03;;;6.40;1.00;;;;;;5025305;28;20059;-76
2022/11/30 12:46:48;;;;;;;10.77;4.72;;;6.40;1.00;;;;;;5041933;28;20045;-76
2022/11/30 12:49:14;;;;;;;8.70;2.70;;;6.40;1.00;;;;;;5025580;28;20375;-76
2022/11/30 12:52:01;;;;;;;3.20;2.95;;;6.40;99.90;;;;;;5041606;28;20110;-77
2022/11/30 12:54:51;;;;;;;1.45;1.08;;;6.40;1.00;;;;;;5043027;28;20049;-77
2022/11/30 12:57:57;;;;;;;6.38;4.40;;;6.40;1.00;;;;;;5042874;28;20080;-76
2022/11/30 13:00:27;;;;;;;2.58;1.77;;;6.40;1.00;;;;;;4991941;28;20453;-76
2022/11/30 13:03:21;;;;;;;3.00;2.80;;;6.40;99.90;;;;;;5042870;28;20048;-76
2022/11/30 13:05:52;;;;;;;2.40;2.08;;;6.40;99.90;;;;;;5024050;28;20041;-77
2022/11/30 13:08:25;;;;;;;5.35;2.80;;;6.30;99.90;;;;;;5042735;28;20041;-76
2022/11/30 13:10:55;;;;;;;3.70;3.40;;;6.40;99.90;;;;;;5025023;28;20049;-77
2022/11/30 13:13:26;;;;;;;2.95;2.75;;;6.30;99.90;;;;;;5043257;28;20410;-76
2022/11/30 13:15:52;;;;;;;4.57;2.38;;;6.50;99.90;;;;;;5042807;28;20452;-76
2022/11/30 13:18:19;;;;;;;6.57;5.55;;;6.30;99.90;;;;;;5040259;28;20048;-76
2022/11/30 13:21:35;;;;;;;4.30;3.35;;;6.30;99.90;;;;;;5040334;28;20045;-76